createdAt,value
2022-12-01T00:03:56.708Z,76.01
2022-12-01T00:09:20.152Z,76.26
2022-12-01T00:14:24.000Z,75.97
2022-12-01T00:19:28.315Z,75.97
2022-12-01T00:24:31.513Z,75.78
2022-12-01T00:29:35.500Z,76.32
2022-12-01T00:34:40.105Z,76.12
2022-12-01T00:39:43.618Z,76.42
2022-12-01T00:44:48.870Z,76.35
2022-12-01T00:49:52.895Z,76.38
2022-12-01T00:54:56.074Z,76.43
2022-12-01T00:59:59.248Z,76.64
2022-12-01T01:05:02.470Z,76.59
2022-12-01T01:10:06.699Z,76.47
2022-12-01T01:15:10.493Z,76.40
2022-12-01T01:20:14.020Z,76.69
2022-12-01T01:25:17.233Z,76.51
2022-12-01T01:30:22.475Z,76.60
2022-12-01T01:35:25.791Z,76.70
2022-12-01T01:40:31.006Z,76.64
2022-12-01T01:45:34.852Z,76.87
2022-12-01T01:50:38.155Z,76.73
2022-12-01T01:55:41.437Z,76.76
2022-12-01T02:00:45.809Z,76.65
2022-12-01T02:05:49.689Z,76.18
2022-12-01T02:11:13.178Z,75.63
2022-12-01T02:16:29.968Z,75.78
2022-12-01T02:21:49.110Z,75.67
2022-12-01T02:27:21.248Z,75.19
2022-12-01T02:33:01.587Z,75.29
2022-12-01T02:38:10.755Z,74.79
2022-12-01T02:43:44.720Z,74.58
2022-12-01T02:48:53.976Z,74.38
2022-12-01T02:54:03.735Z,74.33
2022-12-01T02:59:12.735Z,74.44
2022-12-01T03:04:37.215Z,74.32
2022-12-01T03:09:49.833Z,74.19
2022-12-01T03:14:59.412Z,74.92
2022-12-01T03:20:13.197Z,74.73
2022-12-01T03:25:19.546Z,74.64
2022-12-01T03:30:28.932Z,75.19
2022-12-01T03:35:39.946Z,75.60
2022-12-01T03:40:45.700Z,75.46
2022-12-01T03:46:10.901Z,75.44
2022-12-01T03:51:36.882Z,75.69
2022-12-01T03:56:47.834Z,76.08
2022-12-01T04:01:51.805Z,76.58
2022-12-01T04:06:55.183Z,77.01
2022-12-01T04:12:17.403Z,77.32
2022-12-01T04:17:20.659Z,78.16
2022-12-01T04:22:25.193Z,78.71
2022-12-01T04:27:28.480Z,78.59
2022-12-01T04:32:31.655Z,79.18
2022-12-01T04:37:35.467Z,79.17
2022-12-01T04:42:38.574Z,79.54
2022-12-01T04:47:41.814Z,79.85
2022-12-01T04:52:45.024Z,79.82
2022-12-01T04:57:48.602Z,79.75
2022-12-01T05:02:51.835Z,79.70
2022-12-01T05:07:55.198Z,79.94
2022-12-01T05:12:58.689Z,80.46
2022-12-01T05:18:01.994Z,80.81
2022-12-01T05:23:06.468Z,81.08
2022-12-01T05:28:10.358Z,81.33
2022-12-01T05:33:13.582Z,81.18
2022-12-01T05:38:17.284Z,81.35
2022-12-01T05:43:27.184Z,81.59
2022-12-01T05:48:32.599Z,81.56
2022-12-01T05:53:36.016Z,81.87
2022-12-01T05:58:39.281Z,82.13
2022-12-01T06:03:42.575Z,82.12
2022-12-01T06:08:45.919Z,82.29
2022-12-01T06:13:49.139Z,82.00
2022-12-01T06:18:52.612Z,82.15
2022-12-01T06:23:55.945Z,82.21
2022-12-01T06:28:59.143Z,81.98
2022-12-01T06:34:02.463Z,82.23
2022-12-01T06:39:13.080Z,82.14
2022-12-01T06:44:16.313Z,81.12
2022-12-01T06:49:20.656Z,81.70
2022-12-01T06:54:23.830Z,81.88
2022-12-01T06:59:27.333Z,81.85
2022-12-01T07:04:31.441Z,81.65
2022-12-01T07:09:59.989Z,81.39
2022-12-01T07:15:04.673Z,80.96
2022-12-01T07:20:10.566Z,80.63
2022-12-01T07:25:14.082Z,80.72
2022-12-01T07:30:17.559Z,80.72
2022-12-01T07:35:20.778Z,80.83
2022-12-01T07:40:24.128Z,80.84
2022-12-01T07:45:27.444Z,80.92
2022-12-01T07:50:30.903Z,81.16
2022-12-01T07:55:34.256Z,81.17
2022-12-01T08:00:37.547Z,81.15
2022-12-01T08:05:41.075Z,80.91
2022-12-01T08:10:44.316Z,80.85
2022-12-01T08:15:47.732Z,80.87
2022-12-01T08:20:51.707Z,80.68
2022-12-01T08:25:54.997Z,80.39
2022-12-01T08:30:58.201Z,80.24
2022-12-01T08:36:05.988Z,80.12
2022-12-01T08:41:09.742Z,80.12
2022-12-01T08:46:13.765Z,80.03
2022-12-01T08:51:19.559Z,80.07
2022-12-01T08:56:36.608Z,80.19
2022-12-01T09:01:52.381Z,80.18
2022-12-01T09:06:58.559Z,80.22
2022-12-01T09:12:01.862Z,80.25
2022-12-01T09:17:06.257Z,80.30
2022-12-01T09:22:12.039Z,80.37
2022-12-01T09:27:15.798Z,80.32
2022-12-01T09:32:21.914Z,80.29
2022-12-01T09:37:25.071Z,80.21
2022-12-01T09:42:33.815Z,79.86
2022-12-01T09:47:40.326Z,79.34
2022-12-01T09:52:47.451Z,79.09
2022-12-01T09:57:53.957Z,79.10
2022-12-01T10:03:01.305Z,78.99
2022-12-01T10:08:08.322Z,78.56
2022-12-01T10:13:19.314Z,78.29
2022-12-01T10:18:34.896Z,78.35
2022-12-01T10:23:57.109Z,78.32
2022-12-01T10:29:28.259Z,78.53
2022-12-01T10:34:42.575Z,78.52
2022-12-01T10:39:49.234Z,77.29
2022-12-01T10:44:55.458Z,77.10
2022-12-01T10:49:59.217Z,77.46
2022-12-01T10:55:05.995Z,76.78
2022-12-01T11:00:57.889Z,76.42
2022-12-01T11:05:57.628Z,76.63
2022-12-01T11:11:01.941Z,77.89
2022-12-01T11:16:07.599Z,77.32
2022-12-01T11:21:17.237Z,77.06
2022-12-01T11:26:25.155Z,76.53
2022-12-01T11:31:50.603Z,76.91
2022-12-01T11:37:07.770Z,76.88
2022-12-01T11:42:22.294Z,76.86
2022-12-01T11:47:27.970Z,76.62
2022-12-01T11:52:34.338Z,77.23
2022-12-01T11:57:42.935Z,76.86
2022-12-01T12:03:17.695Z,76.90
2022-12-01T12:08:27.118Z,77.32
2022-12-01T12:13:49.185Z,76.97
2022-12-01T12:19:17.728Z,77.60
2022-12-01T12:24:39.809Z,77.60
2022-12-01T12:29:42.901Z,77.37
2022-12-01T12:34:48.943Z,77.61
2022-12-01T12:39:58.563Z,77.78
2022-12-01T12:45:02.249Z,77.47
2022-12-01T12:50:23.142Z,77.42
2022-12-01T12:55:37.882Z,77.61
2022-12-01T13:00:46.639Z,77.92
2022-12-01T13:06:06.265Z,77.87
2022-12-01T13:12:00.594Z,77.98
2022-12-01T13:17:19.299Z,78.22
2022-12-01T13:22:30.760Z,78.50
2022-12-01T13:27:43.061Z,78.62
2022-12-01T13:32:47.890Z,78.74
2022-12-01T13:37:51.299Z,79.17
2022-12-01T13:43:08.565Z,79.41
2022-12-01T13:48:51.137Z,79.81
2022-12-01T13:54:30.413Z,79.82
2022-12-01T14:00:02.685Z,79.91
2022-12-01T14:05:24.910Z,79.78
2022-12-01T14:10:32.910Z,80.27
2022-12-01T14:15:42.870Z,80.40
2022-12-01T14:20:48.619Z,80.43
2022-12-01T14:26:18.873Z,80.54
2022-12-01T14:31:34.331Z,80.60
2022-12-01T14:37:12.269Z,80.50
2022-12-01T14:42:51.671Z,80.53
2022-12-01T14:48:05.166Z,80.62
2022-12-01T14:53:34.456Z,80.60
2022-12-01T14:58:51.036Z,80.53
2022-12-01T15:03:58.831Z,80.54
2022-12-01T15:09:36.489Z,80.34
2022-12-01T15:14:48.895Z,80.28
2022-12-01T15:19:52.921Z,80.20
2022-12-01T15:25:14.064Z,80.23
2022-12-01T15:30:19.312Z,80.17
2022-12-01T15:35:24.203Z,80.13
2022-12-01T15:46:05.209Z,79.97
2022-12-01T15:51:26.006Z,79.81
2022-12-01T15:56:34.593Z,79.53
2022-12-01T16:01:38.834Z,79.60
2022-12-01T16:06:42.726Z,79.60
2022-12-01T16:12:17.983Z,79.60
2022-12-01T16:17:41.624Z,79.58
2022-12-01T16:22:52.867Z,79.64
2022-12-01T16:27:57.425Z,79.41
2022-12-01T16:33:18.091Z,79.49
2022-12-01T16:38:25.974Z,79.57
2022-12-01T16:43:30.007Z,79.61
2022-12-01T16:48:35.184Z,79.59
2022-12-01T16:53:38.442Z,79.55
2022-12-01T16:58:42.622Z,79.65
2022-12-01T17:03:45.788Z,79.51
2022-12-01T17:08:49.168Z,79.37
2022-12-01T17:13:55.649Z,79.29
2022-12-01T17:19:04.403Z,79.48
2022-12-01T17:24:09.496Z,79.47
2022-12-01T17:29:13.681Z,79.28
2022-12-01T17:34:17.189Z,79.04
2022-12-01T17:39:20.367Z,78.76
2022-12-01T17:44:23.742Z,78.43
2022-12-01T17:49:26.911Z,78.40
2022-12-01T17:54:30.143Z,78.27
2022-12-01T17:59:34.854Z,77.89
2022-12-01T18:04:38.088Z,77.94
2022-12-01T18:09:41.305Z,78.24
2022-12-01T18:14:44.801Z,78.16
2022-12-01T18:19:51.161Z,78.15
2022-12-01T18:24:54.496Z,77.86
2022-12-01T18:29:57.880Z,77.80
2022-12-01T18:35:01.400Z,78.10
2022-12-01T18:40:05.557Z,77.93
2022-12-01T18:45:09.493Z,78.16
2022-12-01T18:50:13.121Z,77.87
2022-12-01T18:55:16.401Z,77.79
2022-12-01T19:00:23.144Z,77.19
2022-12-01T19:05:26.696Z,76.87
2022-12-01T19:10:30.043Z,76.36
2022-12-01T19:15:37.557Z,76.54
2022-12-01T19:20:48.634Z,76.36
2022-12-01T19:25:51.957Z,76.64
2022-12-01T19:30:55.187Z,75.95
2022-12-01T19:36:07.682Z,75.96
2022-12-01T19:41:13.109Z,75.13
2022-12-01T19:46:19.513Z,74.90
2022-12-01T19:51:26.688Z,75.37
2022-12-01T19:56:31.863Z,74.76
2022-12-01T20:01:35.268Z,74.77
2022-12-01T20:06:42.928Z,75.00
2022-12-01T20:11:46.113Z,75.50
2022-12-01T20:16:49.558Z,75.37
2022-12-01T20:21:52.894Z,75.28
2022-12-01T20:26:57.822Z,74.10
2022-12-01T20:32:03.301Z,74.01
2022-12-01T20:37:06.562Z,74.77
2022-12-01T20:42:09.867Z,73.42
2022-12-01T20:47:19.167Z,73.54
2022-12-01T20:52:22.514Z,74.25
2022-12-01T20:57:26.823Z,73.83
2022-12-01T21:02:30.181Z,73.56
2022-12-01T21:07:33.501Z,74.16
2022-12-01T21:12:58.587Z,73.69
2022-12-01T21:18:14.401Z,73.88
2022-12-01T21:23:20.974Z,73.64
2022-12-01T21:28:26.900Z,74.32
2022-12-01T21:33:35.877Z,74.23
2022-12-01T21:38:39.140Z,74.18
2022-12-01T21:43:42.561Z,73.29
2022-12-01T21:48:47.002Z,73.49
2022-12-01T21:53:52.456Z,74.02
2022-12-01T21:59:06.642Z,73.71
2022-12-01T22:04:21.065Z,72.70
2022-12-01T22:09:30.023Z,73.40
2022-12-01T22:14:35.466Z,73.33
2022-12-01T22:19:44.415Z,72.62
2022-12-01T22:25:22.552Z,72.44
2022-12-01T22:30:25.898Z,72.72
2022-12-01T22:35:48.607Z,72.33
2022-12-01T22:41:02.929Z,73.95
2022-12-01T22:46:43.045Z,73.51
2022-12-01T22:51:51.918Z,72.95
2022-12-01T22:57:08.752Z,72.49
2022-12-01T23:02:25.171Z,73.33
2022-12-01T23:07:41.923Z,72.82
2022-12-01T23:12:48.125Z,73.90
2022-12-01T23:17:52.365Z,72.94
2022-12-01T23:22:57.559Z,72.50
2022-12-01T23:28:07.220Z,72.46
2022-12-01T23:33:24.871Z,71.69
2022-12-01T23:38:43.649Z,71.30
2022-12-01T23:43:46.975Z,71.03
2022-12-01T23:48:58.746Z,71.54
2022-12-01T23:54:10.597Z,71.63
2022-12-01T23:59:14.786Z,71.60
